createdAt,value
2023-04-05T00:05:54.858Z,-4.12
2023-04-05T00:16:01.389Z,-4.30
2023-04-05T00:26:07.305Z,-4.42
2023-04-05T00:36:14.869Z,-4.71
2023-04-05T00:46:20.832Z,-4.91
2023-04-05T00:56:28.326Z,-5.07
2023-04-05T01:07:00.896Z,-5.23
2023-04-05T01:17:09.856Z,-5.42
2023-04-05T01:27:20.962Z,-5.55
2023-04-05T01:37:31.946Z,-5.72
2023-04-05T01:47:37.720Z,-5.89
2023-04-05T01:57:43.845Z,-6.04
2023-04-05T02:07:49.527Z,-6.20
2023-04-05T02:17:55.392Z,-6.36
2023-04-05T02:28:01.199Z,-6.54
2023-04-05T02:38:07.656Z,-6.62
2023-04-05T02:48:13.317Z,-6.67
2023-04-05T02:58:19.076Z,-6.71
2023-04-05T03:08:24.863Z,-6.73
2023-04-05T03:18:30.956Z,-6.60
2023-04-05T03:28:36.945Z,-6.71
2023-04-05T03:38:45.033Z,-6.77
2023-04-05T03:48:50.731Z,-6.84
2023-04-05T03:58:56.767Z,-6.88
2023-04-05T04:09:02.729Z,-6.55
2023-04-05T04:19:08.443Z,-6.09
2023-04-05T04:29:16.357Z,-5.74
2023-04-05T04:39:26.757Z,-5.63
2023-04-05T04:49:33.221Z,-5.49
2023-04-05T04:59:38.910Z,-4.61
2023-04-05T05:09:43.192Z,-3.60
2023-04-05T05:19:49.092Z,-2.91
2023-04-05T05:29:54.839Z,-1.83
2023-04-05T05:40:01.030Z,0.15
2023-04-05T05:50:09.267Z,2.51
2023-04-05T06:00:17.400Z,2.12
2023-04-05T06:10:24.726Z,3.60
2023-04-05T06:20:30.578Z,8.46
2023-04-05T06:30:38.569Z,12.73
2023-04-05T06:40:43.178Z,14.71
2023-04-05T06:50:49.220Z,12.65
2023-04-05T07:00:55.915Z,18.34
2023-04-05T07:11:01.653Z,24.50
2023-04-05T07:21:07.746Z,26.98
2023-04-05T07:31:15.889Z,28.65
2023-04-05T07:41:23.645Z,31.17
2023-04-05T07:51:29.573Z,29.37
2023-04-05T08:01:35.451Z,26.97
2023-04-05T08:11:41.712Z,29.72
2023-04-05T08:21:47.512Z,31.76
2023-04-05T08:31:53.574Z,30.07
2023-04-05T08:42:05.112Z,26.67
2023-04-05T08:52:11.652Z,20.35
2023-04-05T09:02:23.116Z,14.16
2023-04-05T09:12:29.427Z,11.07
2023-04-05T09:22:45.435Z,8.77
2023-04-05T09:32:55.140Z,7.66
2023-04-05T09:43:01.627Z,7.80
2023-04-05T09:53:15.994Z,7.61
2023-04-05T10:03:22.262Z,7.02
2023-04-05T10:13:29.027Z,7.54
2023-04-05T10:23:39.220Z,7.83
2023-04-05T10:33:47.824Z,7.24
2023-04-05T10:43:57.897Z,6.65
2023-04-05T10:54:04.032Z,5.99
2023-04-05T11:04:20.592Z,5.56
2023-04-05T11:14:36.013Z,5.36
2023-04-05T11:24:56.945Z,5.48
2023-04-05T11:35:07.709Z,5.31
2023-04-05T11:45:13.670Z,5.55
2023-04-05T11:55:31.663Z,5.68
2023-04-05T12:05:50.373Z,5.09
2023-04-05T12:15:58.376Z,4.88
2023-04-05T12:26:05.795Z,5.13
2023-04-05T12:36:11.775Z,5.17
2023-04-05T12:46:20.492Z,5.20
2023-04-05T12:56:29.400Z,5.22
2023-04-05T13:06:35.532Z,5.66
2023-04-05T13:16:41.595Z,5.83
2023-04-05T13:26:47.347Z,5.58
2023-04-05T13:36:53.162Z,5.10
2023-04-05T13:46:59.061Z,4.90
2023-04-05T13:57:05.744Z,5.11
2023-04-05T14:07:14.848Z,5.09
2023-04-05T14:17:20.868Z,5.12
2023-04-05T14:27:29.281Z,5.08
2023-04-05T14:37:35.313Z,5.06
2023-04-05T14:47:41.759Z,4.87
2023-04-05T14:57:47.893Z,4.83
2023-04-05T15:07:53.872Z,4.66
2023-04-05T15:17:59.733Z,4.26
2023-04-05T15:28:07.035Z,4.03
2023-04-05T15:38:11.388Z,3.95
2023-04-05T15:48:17.586Z,3.76
2023-04-05T15:58:23.520Z,3.56
2023-04-05T16:08:29.266Z,3.26
2023-04-05T16:18:34.949Z,3.02
2023-04-05T16:28:40.585Z,2.90
2023-04-05T16:38:47.509Z,2.61
2023-04-05T16:48:53.342Z,2.21
2023-04-05T16:59:05.033Z,1.86
2023-04-05T17:09:12.582Z,1.54
2023-04-05T17:19:18.606Z,1.23
2023-04-05T17:29:24.369Z,0.93
2023-04-05T17:39:30.219Z,0.60
2023-04-05T17:49:37.740Z,0.30
2023-04-05T17:59:43.790Z,0.17
2023-04-05T18:09:49.829Z,-0.10
2023-04-05T18:19:55.681Z,-0.17
2023-04-05T18:30:01.511Z,-0.23
2023-04-05T18:40:09.618Z,-0.40
2023-04-05T18:50:15.675Z,-0.51
2023-04-05T19:00:22.300Z,-0.64
2023-04-05T19:10:28.099Z,-0.91
2023-04-05T19:20:34.359Z,-1.05
2023-04-05T19:30:41.723Z,-1.05
2023-04-05T19:40:47.591Z,-1.09
2023-04-05T19:50:57.726Z,-1.22
2023-04-05T20:01:03.564Z,-1.29
2023-04-05T20:11:14.263Z,-1.33
2023-04-05T20:21:20.895Z,-1.52
2023-04-05T20:31:29.557Z,-1.64
2023-04-05T20:41:36.265Z,-1.69
2023-04-05T20:51:43.217Z,-1.74
2023-04-05T21:01:49.484Z,-1.88
2023-04-05T21:11:55.328Z,-1.97
2023-04-05T21:22:00.973Z,-2.12
2023-04-05T21:32:07.376Z,-2.23
2023-04-05T21:42:13.124Z,-2.28
2023-04-05T21:52:18.884Z,-2.32
2023-04-05T22:02:24.712Z,-2.21
2023-04-05T22:12:29.246Z,-2.26
2023-04-05T22:22:34.960Z,-2.26
2023-04-05T22:32:41.015Z,-2.31
2023-04-05T22:42:46.582Z,-2.38
2023-04-05T22:52:52.500Z,-2.38
2023-04-05T23:02:58.253Z,-2.60
2023-04-05T23:13:04.039Z,-2.80
2023-04-05T23:23:10.227Z,-3.00
2023-04-05T23:33:16.348Z,-3.03
2023-04-05T23:43:20.922Z,-3.12
2023-04-05T23:53:27.591Z,-3.31
